sensor_id;sensor_type;location;lat;lon;timestamp;temperature;humidity
23291;DHT22;11814;44.686;10.842;2023-06-19T00:01:54;23.60;78.90
23291;DHT22;11814;44.686;10.842;2023-06-19T00:04:20;23.50;78.90
23291;DHT22;11814;44.686;10.842;2023-06-19T00:06:46;23.50;79.50
23291;DHT22;11814;44.686;10.842;2023-06-19T00:09:14;23.50;79.90
23291;DHT22;11814;44.686;10.842;2023-06-19T00:11:39;23.40;80.10
23291;DHT22;11814;44.686;10.842;2023-06-19T00:14:05;23.40;80.60
23291;DHT22;11814;44.686;10.842;2023-06-19T00:16:31;23.30;81.30
23291;DHT22;11814;44.686;10.842;2023-06-19T00:18:58;23.20;82.10
23291;DHT22;11814;44.686;10.842;2023-06-19T00:21:24;23.10;82.80
23291;DHT22;11814;44.686;10.842;2023-06-19T00:23:51;23.00;83.40
23291;DHT22;11814;44.686;10.842;2023-06-19T00:26:18;22.90;83.80
23291;DHT22;11814;44.686;10.842;2023-06-19T00:28:47;22.80;84.50
23291;DHT22;11814;44.686;10.842;2023-06-19T00:31:16;22.70;84.80
23291;DHT22;11814;44.686;10.842;2023-06-19T00:33:43;22.70;85.40
23291;DHT22;11814;44.686;10.842;2023-06-19T00:36:10;22.80;85.80
23291;DHT22;11814;44.686;10.842;2023-06-19T00:38:36;22.70;86.20
23291;DHT22;11814;44.686;10.842;2023-06-19T00:41:03;22.60;86.50
23291;DHT22;11814;44.686;10.842;2023-06-19T00:43:28;22.60;86.90
23291;DHT22;11814;44.686;10.842;2023-06-19T00:45:56;22.60;87.50
23291;DHT22;11814;44.686;10.842;2023-06-19T00:48:23;22.60;87.90
23291;DHT22;11814;44.686;10.842;2023-06-19T00:50:50;22.60;88.10
23291;DHT22;11814;44.686;10.842;2023-06-19T00:53:16;22.60;88.40
23291;DHT22;11814;44.686;10.842;2023-06-19T00:55:43;22.60;88.60
23291;DHT22;11814;44.686;10.842;2023-06-19T00:58:10;22.60;88.40
23291;DHT22;11814;44.686;10.842;2023-06-19T01:00:36;22.50;88.10
23291;DHT22;11814;44.686;10.842;2023-06-19T01:03:02;22.50;88.20
23291;DHT22;11814;44.686;10.842;2023-06-19T01:05:28;22.50;88.40
23291;DHT22;11814;44.686;10.842;2023-06-19T01:10:41;22.50;88.70
23291;DHT22;11814;44.686;10.842;2023-06-19T01:16:12;22.40;89.00
23291;DHT22;11814;44.686;10.842;2023-06-19T01:18:39;22.40;89.10
23291;DHT22;11814;44.686;10.842;2023-06-19T01:21:23;22.40;89.50
23291;DHT22;11814;44.686;10.842;2023-06-19T01:23:49;22.30;90.00
23291;DHT22;11814;44.686;10.842;2023-06-19T01:26:16;22.20;90.10
23291;DHT22;11814;44.686;10.842;2023-06-19T01:28:43;22.20;90.40
23291;DHT22;11814;44.686;10.842;2023-06-19T01:31:27;22.20;90.40
23291;DHT22;11814;44.686;10.842;2023-06-19T01:33:55;22.10;90.60
23291;DHT22;11814;44.686;10.842;2023-06-19T01:36:22;22.10;90.80
23291;DHT22;11814;44.686;10.842;2023-06-19T01:38:49;22.10;90.90
23291;DHT22;11814;44.686;10.842;2023-06-19T01:41:16;22.10;90.90
23291;DHT22;11814;44.686;10.842;2023-06-19T01:43:43;22.10;91.10
23291;DHT22;11814;44.686;10.842;2023-06-19T01:46:10;22.10;91.30
23291;DHT22;11814;44.686;10.842;2023-06-19T01:48:37;22.00;91.40
23291;DHT22;11814;44.686;10.842;2023-06-19T01:51:03;22.00;91.60
23291;DHT22;11814;44.686;10.842;2023-06-19T01:53:32;22.00;91.80
23291;DHT22;11814;44.686;10.842;2023-06-19T01:55:58;22.00;92.00
23291;DHT22;11814;44.686;10.842;2023-06-19T01:58:24;22.00;92.30
23291;DHT22;11814;44.686;10.842;2023-06-19T02:00:50;21.90;92.60
23291;DHT22;11814;44.686;10.842;2023-06-19T02:03:16;21.90;92.80
23291;DHT22;11814;44.686;10.842;2023-06-19T02:05:42;21.90;93.20
23291;DHT22;11814;44.686;10.842;2023-06-19T02:08:08;21.90;93.70
23291;DHT22;11814;44.686;10.842;2023-06-19T02:10:34;21.80;94.10
23291;DHT22;11814;44.686;10.842;2023-06-19T02:13:00;21.80;94.50
23291;DHT22;11814;44.686;10.842;2023-06-19T02:15:26;21.80;94.80
23291;DHT22;11814;44.686;10.842;2023-06-19T02:17:51;21.70;95.00
23291;DHT22;11814;44.686;10.842;2023-06-19T02:20:21;21.70;95.30
23291;DHT22;11814;44.686;10.842;2023-06-19T02:22:47;21.80;95.40
23291;DHT22;11814;44.686;10.842;2023-06-19T02:25:12;21.80;95.60
23291;DHT22;11814;44.686;10.842;2023-06-19T02:27:38;21.80;95.60
23291;DHT22;11814;44.686;10.842;2023-06-19T02:30:05;21.80;95.70
23291;DHT22;11814;44.686;10.842;2023-06-19T02:32:31;21.80;95.80
23291;DHT22;11814;44.686;10.842;2023-06-19T02:34:57;21.70;95.80
23291;DHT22;11814;44.686;10.842;2023-06-19T02:37:23;21.70;95.90
23291;DHT22;11814;44.686;10.842;2023-06-19T02:39:49;21.70;96.10
23291;DHT22;11814;44.686;10.842;2023-06-19T02:42:14;21.60;96.30
23291;DHT22;11814;44.686;10.842;2023-06-19T02:44:40;21.70;96.40
23291;DHT22;11814;44.686;10.842;2023-06-19T02:47:08;21.70;96.40
23291;DHT22;11814;44.686;10.842;2023-06-19T02:49:33;21.70;96.30
23291;DHT22;11814;44.686;10.842;2023-06-19T02:51:59;21.60;96.20
23291;DHT22;11814;44.686;10.842;2023-06-19T02:54:25;21.60;96.40
23291;DHT22;11814;44.686;10.842;2023-06-19T02:56:50;21.60;96.50
23291;DHT22;11814;44.686;10.842;2023-06-19T02:59:16;21.60;96.50
23291;DHT22;11814;44.686;10.842;2023-06-19T03:01:42;21.60;96.50
23291;DHT22;11814;44.686;10.842;2023-06-19T03:04:08;21.60;96.50
23291;DHT22;11814;44.686;10.842;2023-06-19T03:06:33;21.60;96.60
23291;DHT22;11814;44.686;10.842;2023-06-19T03:09:06;21.60;96.70
23291;DHT22;11814;44.686;10.842;2023-06-19T03:11:38;21.60;96.70
23291;DHT22;11814;44.686;10.842;2023-06-19T03:14:05;21.60;96.60
23291;DHT22;11814;44.686;10.842;2023-06-19T03:16:33;21.70;96.60
23291;DHT22;11814;44.686;10.842;2023-06-19T03:18:59;21.70;96.50
23291;DHT22;11814;44.686;10.842;2023-06-19T03:21:25;21.70;96.40
23291;DHT22;11814;44.686;10.842;2023-06-19T03:23:51;21.70;96.40
23291;DHT22;11814;44.686;10.842;2023-06-19T03:26:19;21.70;96.20
23291;DHT22;11814;44.686;10.842;2023-06-19T03:28:45;21.70;96.10
23291;DHT22;11814;44.686;10.842;2023-06-19T03:31:12;21.60;96.00
23291;DHT22;11814;44.686;10.842;2023-06-19T03:33:38;21.60;96.00
23291;DHT22;11814;44.686;10.842;2023-06-19T03:36:04;21.70;95.90
23291;DHT22;11814;44.686;10.842;2023-06-19T03:38:30;21.60;95.80
23291;DHT22;11814;44.686;10.842;2023-06-19T03:40:56;21.50;95.70
23291;DHT22;11814;44.686;10.842;2023-06-19T03:43:21;21.50;95.70
23291;DHT22;11814;44.686;10.842;2023-06-19T03:45:47;21.50;95.60
23291;DHT22;11814;44.686;10.842;2023-06-19T03:48:13;21.60;95.50
23291;DHT22;11814;44.686;10.842;2023-06-19T03:50:39;21.60;95.50
23291;DHT22;11814;44.686;10.842;2023-06-19T03:53:04;21.50;95.50
23291;DHT22;11814;44.686;10.842;2023-06-19T03:55:30;21.50;95.40
23291;DHT22;11814;44.686;10.842;2023-06-19T03:57:56;21.50;95.50
23291;DHT22;11814;44.686;10.842;2023-06-19T04:00:21;21.50;95.50
23291;DHT22;11814;44.686;10.842;2023-06-19T04:02:48;21.50;95.60
23291;DHT22;11814;44.686;10.842;2023-06-19T04:05:14;21.50;95.80
23291;DHT22;11814;44.686;10.842;2023-06-19T04:07:43;21.50;96.00
23291;DHT22;11814;44.686;10.842;2023-06-19T04:10:09;21.50;96.00
23291;DHT22;11814;44.686;10.842;2023-06-19T04:12:37;21.50;95.90
23291;DHT22;11814;44.686;10.842;2023-06-19T04:15:03;21.50;96.10
23291;DHT22;11814;44.686;10.842;2023-06-19T04:17:29;21.50;96.20
23291;DHT22;11814;44.686;10.842;2023-06-19T04:19:55;21.50;96.20
23291;DHT22;11814;44.686;10.842;2023-06-19T04:22:20;21.50;96.00
23291;DHT22;11814;44.686;10.842;2023-06-19T04:24:46;21.60;95.80
23291;DHT22;11814;44.686;10.842;2023-06-19T04:27:12;21.70;95.70
23291;DHT22;11814;44.686;10.842;2023-06-19T04:29:37;21.70;95.70
23291;DHT22;11814;44.686;10.842;2023-06-19T04:32:03;21.70;96.00
23291;DHT22;11814;44.686;10.842;2023-06-19T04:34:37;21.80;96.30
23291;DHT22;11814;44.686;10.842;2023-06-19T04:37:02;21.80;96.50
23291;DHT22;11814;44.686;10.842;2023-06-19T04:39:28;21.80;96.50
23291;DHT22;11814;44.686;10.842;2023-06-19T04:41:54;21.80;96.90
23291;DHT22;11814;44.686;10.842;2023-06-19T04:44:20;21.80;96.50
23291;DHT22;11814;44.686;10.842;2023-06-19T04:46:45;21.90;96.50
23291;DHT22;11814;44.686;10.842;2023-06-19T04:49:12;22.00;96.60
23291;DHT22;11814;44.686;10.842;2023-06-19T04:51:38;22.00;96.90
23291;DHT22;11814;44.686;10.842;2023-06-19T04:54:04;22.10;96.90
23291;DHT22;11814;44.686;10.842;2023-06-19T04:56:29;22.10;96.80
23291;DHT22;11814;44.686;10.842;2023-06-19T04:58:56;22.10;96.70
23291;DHT22;11814;44.686;10.842;2023-06-19T05:01:25;22.20;97.30
23291;DHT22;11814;44.686;10.842;2023-06-19T05:03:54;22.30;97.60
23291;DHT22;11814;44.686;10.842;2023-06-19T05:06:24;22.30;97.50
23291;DHT22;11814;44.686;10.842;2023-06-19T05:08:50;22.20;97.30
23291;DHT22;11814;44.686;10.842;2023-06-19T05:11:16;22.30;97.20
23291;DHT22;11814;44.686;10.842;2023-06-19T05:13:42;22.30;97.10
23291;DHT22;11814;44.686;10.842;2023-06-19T05:16:08;22.30;97.00
23291;DHT22;11814;44.686;10.842;2023-06-19T05:18:33;22.30;96.90
23291;DHT22;11814;44.686;10.842;2023-06-19T05:20:59;22.40;96.90
23291;DHT22;11814;44.686;10.842;2023-06-19T05:23:25;22.30;96.70
23291;DHT22;11814;44.686;10.842;2023-06-19T05:25:50;22.40;96.60
23291;DHT22;11814;44.686;10.842;2023-06-19T05:28:16;22.30;96.60
23291;DHT22;11814;44.686;10.842;2023-06-19T05:30:42;22.30;96.60
23291;DHT22;11814;44.686;10.842;2023-06-19T05:33:08;22.40;96.60
23291;DHT22;11814;44.686;10.842;2023-06-19T05:35:35;22.40;96.70
23291;DHT22;11814;44.686;10.842;2023-06-19T05:38:00;22.40;96.90
23291;DHT22;11814;44.686;10.842;2023-06-19T05:40:26;22.40;97.00
23291;DHT22;11814;44.686;10.842;2023-06-19T05:42:52;22.40;97.20
23291;DHT22;11814;44.686;10.842;2023-06-19T05:45:17;22.40;97.40
23291;DHT22;11814;44.686;10.842;2023-06-19T05:47:43;22.50;97.60
23291;DHT22;11814;44.686;10.842;2023-06-19T05:50:09;22.50;98.00
23291;DHT22;11814;44.686;10.842;2023-06-19T05:52:35;22.50;98.50
23291;DHT22;11814;44.686;10.842;2023-06-19T05:55:00;22.60;98.50
23291;DHT22;11814;44.686;10.842;2023-06-19T05:57:27;22.60;98.20
23291;DHT22;11814;44.686;10.842;2023-06-19T05:59:52;22.70;97.80
23291;DHT22;11814;44.686;10.842;2023-06-19T06:02:19;22.80;97.60
23291;DHT22;11814;44.686;10.842;2023-06-19T06:04:45;22.80;97.50
23291;DHT22;11814;44.686;10.842;2023-06-19T06:07:11;22.90;97.50
23291;DHT22;11814;44.686;10.842;2023-06-19T06:09:37;23.00;97.00
23291;DHT22;11814;44.686;10.842;2023-06-19T06:12:03;23.00;96.90
23291;DHT22;11814;44.686;10.842;2023-06-19T06:14:29;23.10;96.80
23291;DHT22;11814;44.686;10.842;2023-06-19T06:16:55;23.10;96.80
23291;DHT22;11814;44.686;10.842;2023-06-19T06:19:21;23.10;97.00
23291;DHT22;11814;44.686;10.842;2023-06-19T06:21:48;23.10;97.20
23291;DHT22;11814;44.686;10.842;2023-06-19T06:24:14;23.20;97.40
23291;DHT22;11814;44.686;10.842;2023-06-19T06:26:40;23.20;97.50
23291;DHT22;11814;44.686;10.842;2023-06-19T06:29:07;23.20;97.60
23291;DHT22;11814;44.686;10.842;2023-06-19T06:31:33;23.20;97.70
23291;DHT22;11814;44.686;10.842;2023-06-19T06:33:59;23.20;97.60
23291;DHT22;11814;44.686;10.842;2023-06-19T06:36:25;23.20;97.50
23291;DHT22;11814;44.686;10.842;2023-06-19T06:38:50;23.30;97.40
23291;DHT22;11814;44.686;10.842;2023-06-19T06:41:16;23.40;97.40
23291;DHT22;11814;44.686;10.842;2023-06-19T06:43:42;23.40;97.30
23291;DHT22;11814;44.686;10.842;2023-06-19T06:46:09;23.50;96.90
23291;DHT22;11814;44.686;10.842;2023-06-19T06:48:36;23.60;96.70
23291;DHT22;11814;44.686;10.842;2023-06-19T06:51:02;23.60;96.70
23291;DHT22;11814;44.686;10.842;2023-06-19T06:53:28;23.70;97.30
23291;DHT22;11814;44.686;10.842;2023-06-19T06:55:58;23.70;97.80
23291;DHT22;11814;44.686;10.842;2023-06-19T06:58:25;23.80;98.10
23291;DHT22;11814;44.686;10.842;2023-06-19T07:00:51;23.90;98.20
23291;DHT22;11814;44.686;10.842;2023-06-19T07:03:17;24.10;98.10
23291;DHT22;11814;44.686;10.842;2023-06-19T07:05:43;24.30;97.70
23291;DHT22;11814;44.686;10.842;2023-06-19T07:08:09;24.40;97.10
23291;DHT22;11814;44.686;10.842;2023-06-19T07:10:35;24.50;96.70
23291;DHT22;11814;44.686;10.842;2023-06-19T07:13:01;24.60;96.30
23291;DHT22;11814;44.686;10.842;2023-06-19T07:15:26;24.70;95.90
23291;DHT22;11814;44.686;10.842;2023-06-19T07:17:52;24.70;95.20
23291;DHT22;11814;44.686;10.842;2023-06-19T07:20:18;24.80;94.60
23291;DHT22;11814;44.686;10.842;2023-06-19T07:22:44;24.80;94.70
23291;DHT22;11814;44.686;10.842;2023-06-19T07:25:11;24.90;94.10
23291;DHT22;11814;44.686;10.842;2023-06-19T07:27:38;24.90;93.60
23291;DHT22;11814;44.686;10.842;2023-06-19T07:30:04;25.00;93.00
23291;DHT22;11814;44.686;10.842;2023-06-19T07:32:30;25.00;92.80
23291;DHT22;11814;44.686;10.842;2023-06-19T07:34:55;25.20;92.60
23291;DHT22;11814;44.686;10.842;2023-06-19T07:37:21;25.30;92.00
23291;DHT22;11814;44.686;10.842;2023-06-19T07:39:50;25.40;91.10
23291;DHT22;11814;44.686;10.842;2023-06-19T07:42:18;25.50;90.90
23291;DHT22;11814;44.686;10.842;2023-06-19T07:44:44;25.80;90.40
23291;DHT22;11814;44.686;10.842;2023-06-19T07:47:11;26.10;88.40
23291;DHT22;11814;44.686;10.842;2023-06-19T07:49:37;26.20;85.50
23291;DHT22;11814;44.686;10.842;2023-06-19T07:52:04;26.30;83.70
23291;DHT22;11814;44.686;10.842;2023-06-19T07:54:30;26.40;82.30
23291;DHT22;11814;44.686;10.842;2023-06-19T07:56:58;26.40;80.90
23291;DHT22;11814;44.686;10.842;2023-06-19T07:59:24;26.50;80.00
23291;DHT22;11814;44.686;10.842;2023-06-19T08:01:50;26.70;79.20
23291;DHT22;11814;44.686;10.842;2023-06-19T08:04:15;26.80;77.80
23291;DHT22;11814;44.686;10.842;2023-06-19T08:06:41;27.00;76.80
23291;DHT22;11814;44.686;10.842;2023-06-19T08:09:07;27.10;75.80
23291;DHT22;11814;44.686;10.842;2023-06-19T08:11:33;27.20;74.80
23291;DHT22;11814;44.686;10.842;2023-06-19T08:13:59;27.30;74.50
23291;DHT22;11814;44.686;10.842;2023-06-19T08:16:25;27.30;74.70
23291;DHT22;11814;44.686;10.842;2023-06-19T08:18:51;27.50;74.90
23291;DHT22;11814;44.686;10.842;2023-06-19T08:21:17;27.50;75.00
23291;DHT22;11814;44.686;10.842;2023-06-19T08:23:43;27.50;75.10
23291;DHT22;11814;44.686;10.842;2023-06-19T08:26:10;27.60;74.80
23291;DHT22;11814;44.686;10.842;2023-06-19T08:28:37;27.60;74.30
23291;DHT22;11814;44.686;10.842;2023-06-19T08:31:02;27.60;74.50
23291;DHT22;11814;44.686;10.842;2023-06-19T08:33:28;27.70;74.10
23291;DHT22;11814;44.686;10.842;2023-06-19T08:35:54;27.80;73.40
23291;DHT22;11814;44.686;10.842;2023-06-19T08:38:20;27.90;72.70
23291;DHT22;11814;44.686;10.842;2023-06-19T08:40:45;28.00;71.80
23291;DHT22;11814;44.686;10.842;2023-06-19T08:43:11;28.10;71.40
23291;DHT22;11814;44.686;10.842;2023-06-19T08:45:37;28.10;71.40
23291;DHT22;11814;44.686;10.842;2023-06-19T08:48:04;28.20;71.10
23291;DHT22;11814;44.686;10.842;2023-06-19T08:50:31;28.30;71.00
23291;DHT22;11814;44.686;10.842;2023-06-19T08:52:57;28.30;71.20
23291;DHT22;11814;44.686;10.842;2023-06-19T08:55:23;28.40;70.90
23291;DHT22;11814;44.686;10.842;2023-06-19T08:57:49;28.50;70.20
23291;DHT22;11814;44.686;10.842;2023-06-19T09:00:26;28.50;68.60
23291;DHT22;11814;44.686;10.842;2023-06-19T09:02:59;28.60;66.70
23291;DHT22;11814;44.686;10.842;2023-06-19T09:05:26;28.70;65.70
23291;DHT22;11814;44.686;10.842;2023-06-19T09:07:59;28.80;64.90
23291;DHT22;11814;44.686;10.842;2023-06-19T09:10:28;28.80;63.50
23291;DHT22;11814;44.686;10.842;2023-06-19T09:13:02;28.90;63.10
23291;DHT22;11814;44.686;10.842;2023-06-19T09:15:31;28.90;63.60
23291;DHT22;11814;44.686;10.842;2023-06-19T09:18:14;28.90;64.10
23291;DHT22;11814;44.686;10.842;2023-06-19T09:20:41;29.00;64.70
23291;DHT22;11814;44.686;10.842;2023-06-19T09:23:11;29.00;64.50
23291;DHT22;11814;44.686;10.842;2023-06-19T09:25:51;29.10;64.60
23291;DHT22;11814;44.686;10.842;2023-06-19T09:31:13;29.20;63.80
23291;DHT22;11814;44.686;10.842;2023-06-19T09:33:40;29.30;63.10
23291;DHT22;11814;44.686;10.842;2023-06-19T09:36:06;29.40;63.00
23291;DHT22;11814;44.686;10.842;2023-06-19T09:38:37;29.40;62.70
23291;DHT22;11814;44.686;10.842;2023-06-19T09:41:05;29.50;63.10
23291;DHT22;11814;44.686;10.842;2023-06-19T09:43:40;29.50;63.00
23291;DHT22;11814;44.686;10.842;2023-06-19T09:46:06;29.50;63.20
23291;DHT22;11814;44.686;10.842;2023-06-19T09:48:34;29.50;63.30
23291;DHT22;11814;44.686;10.842;2023-06-19T09:53:34;29.50;62.70
23291;DHT22;11814;44.686;10.842;2023-06-19T09:56:00;29.60;62.80
23291;DHT22;11814;44.686;10.842;2023-06-19T09:58:26;29.60;62.40
23291;DHT22;11814;44.686;10.842;2023-06-19T10:00:54;29.50;62.50
23291;DHT22;11814;44.686;10.842;2023-06-19T10:03:20;29.60;62.70
23291;DHT22;11814;44.686;10.842;2023-06-19T10:05:46;29.60;62.50
23291;DHT22;11814;44.686;10.842;2023-06-19T10:08:12;29.70;62.20
23291;DHT22;11814;44.686;10.842;2023-06-19T10:10:47;29.80;61.90
23291;DHT22;11814;44.686;10.842;2023-06-19T10:13:15;29.90;61.70
23291;DHT22;11814;44.686;10.842;2023-06-19T10:15:42;29.90;61.40
23291;DHT22;11814;44.686;10.842;2023-06-19T10:18:18;30.00;60.60
23291;DHT22;11814;44.686;10.842;2023-06-19T10:20:45;30.10;60.70
23291;DHT22;11814;44.686;10.842;2023-06-19T10:23:28;30.20;61.00
23291;DHT22;11814;44.686;10.842;2023-06-19T10:28:21;30.40;60.10
23291;DHT22;11814;44.686;10.842;2023-06-19T10:31:00;30.30;58.70
23291;DHT22;11814;44.686;10.842;2023-06-19T10:33:28;30.30;59.00
23291;DHT22;11814;44.686;10.842;2023-06-19T10:35:54;30.30;59.00
23291;DHT22;11814;44.686;10.842;2023-06-19T10:38:20;30.40;58.90
23291;DHT22;11814;44.686;10.842;2023-06-19T10:40:47;30.40;59.40
23291;DHT22;11814;44.686;10.842;2023-06-19T10:43:19;30.60;59.20
23291;DHT22;11814;44.686;10.842;2023-06-19T10:45:44;30.70;58.70
23291;DHT22;11814;44.686;10.842;2023-06-19T10:48:10;30.80;58.60
23291;DHT22;11814;44.686;10.842;2023-06-19T10:50:37;30.90;57.90
23291;DHT22;11814;44.686;10.842;2023-06-19T10:53:07;30.90;56.90
23291;DHT22;11814;44.686;10.842;2023-06-19T10:55:32;31.00;56.30
23291;DHT22;11814;44.686;10.842;2023-06-19T10:57:58;31.00;56.30
23291;DHT22;11814;44.686;10.842;2023-06-19T11:00:30;31.10;56.70
23291;DHT22;11814;44.686;10.842;2023-06-19T11:02:57;31.20;56.70
23291;DHT22;11814;44.686;10.842;2023-06-19T11:05:24;31.20;56.60
23291;DHT22;11814;44.686;10.842;2023-06-19T11:07:57;31.20;55.90
23291;DHT22;11814;44.686;10.842;2023-06-19T11:10:27;31.20;55.90
23291;DHT22;11814;44.686;10.842;2023-06-19T11:12:57;31.30;55.80
23291;DHT22;11814;44.686;10.842;2023-06-19T11:15:30;31.30;55.80
23291;DHT22;11814;44.686;10.842;2023-06-19T11:17:57;31.40;56.20
23291;DHT22;11814;44.686;10.842;2023-06-19T11:20:23;31.50;56.30
23291;DHT22;11814;44.686;10.842;2023-06-19T11:22:55;31.50;55.70
23291;DHT22;11814;44.686;10.842;2023-06-19T11:25:21;31.50;54.90
23291;DHT22;11814;44.686;10.842;2023-06-19T11:27:47;31.50;54.90
23291;DHT22;11814;44.686;10.842;2023-06-19T11:30:18;31.50;54.80
23291;DHT22;11814;44.686;10.842;2023-06-19T11:32:46;31.40;54.80
23291;DHT22;11814;44.686;10.842;2023-06-19T11:35:15;31.50;55.60
23291;DHT22;11814;44.686;10.842;2023-06-19T11:37:42;31.50;55.50
23291;DHT22;11814;44.686;10.842;2023-06-19T11:40:09;31.50;55.50
23291;DHT22;11814;44.686;10.842;2023-06-19T11:42:47;31.40;55.30
23291;DHT22;11814;44.686;10.842;2023-06-19T11:45:15;31.40;55.40
23291;DHT22;11814;44.686;10.842;2023-06-19T11:47:42;31.40;55.30
23291;DHT22;11814;44.686;10.842;2023-06-19T11:50:08;31.40;55.00
23291;DHT22;11814;44.686;10.842;2023-06-19T11:52:34;31.40;54.90
23291;DHT22;11814;44.686;10.842;2023-06-19T11:55:00;31.40;54.70
23291;DHT22;11814;44.686;10.842;2023-06-19T11:57:27;31.40;54.50
23291;DHT22;11814;44.686;10.842;2023-06-19T11:59:52;31.40;54.70
23291;DHT22;11814;44.686;10.842;2023-06-19T12:02:18;31.50;54.70
23291;DHT22;11814;44.686;10.842;2023-06-19T12:04:44;31.40;55.00
23291;DHT22;11814;44.686;10.842;2023-06-19T12:07:09;31.50;55.40
23291;DHT22;11814;44.686;10.842;2023-06-19T12:09:36;31.50;55.80
23291;DHT22;11814;44.686;10.842;2023-06-19T12:12:05;31.50;56.10
23291;DHT22;11814;44.686;10.842;2023-06-19T12:14:31;31.50;56.40
23291;DHT22;11814;44.686;10.842;2023-06-19T12:16:57;31.50;56.10
23291;DHT22;11814;44.686;10.842;2023-06-19T12:19:22;31.50;56.00
23291;DHT22;11814;44.686;10.842;2023-06-19T12:21:48;31.50;56.30
23291;DHT22;11814;44.686;10.842;2023-06-19T12:24:14;31.50;56.20
23291;DHT22;11814;44.686;10.842;2023-06-19T12:26:40;31.50;56.30
23291;DHT22;11814;44.686;10.842;2023-06-19T12:29:06;31.50;56.30
23291;DHT22;11814;44.686;10.842;2023-06-19T12:31:33;31.50;56.30
23291;DHT22;11814;44.686;10.842;2023-06-19T12:33:59;31.50;56.30
23291;DHT22;11814;44.686;10.842;2023-06-19T12:36:26;31.60;56.70
23291;DHT22;11814;44.686;10.842;2023-06-19T12:38:53;31.70;56.80
23291;DHT22;11814;44.686;10.842;2023-06-19T12:41:22;31.70;56.40
23291;DHT22;11814;44.686;10.842;2023-06-19T12:43:48;31.70;56.20
23291;DHT22;11814;44.686;10.842;2023-06-19T12:46:13;31.70;55.90
23291;DHT22;11814;44.686;10.842;2023-06-19T12:48:40;31.70;55.70
23291;DHT22;11814;44.686;10.842;2023-06-19T12:51:06;31.70;56.10
23291;DHT22;11814;44.686;10.842;2023-06-19T12:53:32;31.70;56.40
23291;DHT22;11814;44.686;10.842;2023-06-19T12:55:58;31.70;56.80
23291;DHT22;11814;44.686;10.842;2023-06-19T12:58:25;31.70;56.50
23291;DHT22;11814;44.686;10.842;2023-06-19T13:00:51;31.70;56.10
23291;DHT22;11814;44.686;10.842;2023-06-19T13:03:16;31.70;56.00
23291;DHT22;11814;44.686;10.842;2023-06-19T13:05:42;31.80;56.20
23291;DHT22;11814;44.686;10.842;2023-06-19T13:08:08;31.90;56.00
23291;DHT22;11814;44.686;10.842;2023-06-19T13:10:34;31.90;55.20
23291;DHT22;11814;44.686;10.842;2023-06-19T13:13:00;32.00;54.90
23291;DHT22;11814;44.686;10.842;2023-06-19T13:15:26;32.20;54.50
23291;DHT22;11814;44.686;10.842;2023-06-19T13:17:53;32.20;54.10
23291;DHT22;11814;44.686;10.842;2023-06-19T13:20:19;32.30;53.80
23291;DHT22;11814;44.686;10.842;2023-06-19T13:22:44;32.30;54.00
23291;DHT22;11814;44.686;10.842;2023-06-19T13:25:10;32.40;54.20
23291;DHT22;11814;44.686;10.842;2023-06-19T13:27:36;32.40;54.10
23291;DHT22;11814;44.686;10.842;2023-06-19T13:30:02;32.50;53.90
23291;DHT22;11814;44.686;10.842;2023-06-19T13:32:28;32.60;53.60
23291;DHT22;11814;44.686;10.842;2023-06-19T13:34:54;32.60;53.50
23291;DHT22;11814;44.686;10.842;2023-06-19T13:37:20;32.60;53.10
23291;DHT22;11814;44.686;10.842;2023-06-19T13:39:46;32.70;53.20
23291;DHT22;11814;44.686;10.842;2023-06-19T13:42:12;32.80;53.10
23291;DHT22;11814;44.686;10.842;2023-06-19T13:44:38;32.80;53.00
23291;DHT22;11814;44.686;10.842;2023-06-19T13:47:04;32.90;52.60
23291;DHT22;11814;44.686;10.842;2023-06-19T13:49:30;32.90;51.90
23291;DHT22;11814;44.686;10.842;2023-06-19T13:51:56;32.90;51.60
23291;DHT22;11814;44.686;10.842;2023-06-19T13:54:22;33.00;51.30
23291;DHT22;11814;44.686;10.842;2023-06-19T13:56:48;32.90;51.40
23291;DHT22;11814;44.686;10.842;2023-06-19T13:59:16;32.90;51.90
23291;DHT22;11814;44.686;10.842;2023-06-19T14:01:42;33.00;52.00
23291;DHT22;11814;44.686;10.842;2023-06-19T14:04:08;33.00;51.90
23291;DHT22;11814;44.686;10.842;2023-06-19T14:06:37;33.10;51.80
23291;DHT22;11814;44.686;10.842;2023-06-19T14:09:03;33.20;51.90
23291;DHT22;11814;44.686;10.842;2023-06-19T14:11:29;33.20;52.00
23291;DHT22;11814;44.686;10.842;2023-06-19T14:13:55;33.20;51.70
23291;DHT22;11814;44.686;10.842;2023-06-19T14:16:21;33.20;52.70
23291;DHT22;11814;44.686;10.842;2023-06-19T14:18:47;33.20;52.40
23291;DHT22;11814;44.686;10.842;2023-06-19T14:21:12;33.30;52.50
23291;DHT22;11814;44.686;10.842;2023-06-19T14:23:38;33.40;52.30
23291;DHT22;11814;44.686;10.842;2023-06-19T14:26:11;33.40;51.60
23291;DHT22;11814;44.686;10.842;2023-06-19T14:28:38;33.50;51.90
23291;DHT22;11814;44.686;10.842;2023-06-19T14:31:05;33.40;52.20
23291;DHT22;11814;44.686;10.842;2023-06-19T14:33:30;33.50;52.40
23291;DHT22;11814;44.686;10.842;2023-06-19T14:36:01;33.50;52.40
23291;DHT22;11814;44.686;10.842;2023-06-19T14:38:28;33.50;52.30
23291;DHT22;11814;44.686;10.842;2023-06-19T14:41:00;33.40;52.50
23291;DHT22;11814;44.686;10.842;2023-06-19T14:43:27;33.40;52.60
23291;DHT22;11814;44.686;10.842;2023-06-19T14:45:52;33.40;52.60
23291;DHT22;11814;44.686;10.842;2023-06-19T14:48:18;33.40;52.20
23291;DHT22;11814;44.686;10.842;2023-06-19T14:50:44;33.30;51.90
23291;DHT22;11814;44.686;10.842;2023-06-19T14:53:10;33.30;51.90
23291;DHT22;11814;44.686;10.842;2023-06-19T14:55:36;33.40;52.30
23291;DHT22;11814;44.686;10.842;2023-06-19T14:58:05;33.40;52.20
23291;DHT22;11814;44.686;10.842;2023-06-19T15:00:31;33.40;51.70
23291;DHT22;11814;44.686;10.842;2023-06-19T15:02:57;33.30;51.90
23291;DHT22;11814;44.686;10.842;2023-06-19T15:05:22;33.30;52.20
23291;DHT22;11814;44.686;10.842;2023-06-19T15:07:48;33.40;52.50
23291;DHT22;11814;44.686;10.842;2023-06-19T15:10:14;33.40;52.80
23291;DHT22;11814;44.686;10.842;2023-06-19T15:12:39;33.40;53.00
23291;DHT22;11814;44.686;10.842;2023-06-19T15:15:06;33.40;52.90
23291;DHT22;11814;44.686;10.842;2023-06-19T15:17:32;33.50;53.00
23291;DHT22;11814;44.686;10.842;2023-06-19T15:19:58;33.40;53.20
23291;DHT22;11814;44.686;10.842;2023-06-19T15:22:23;33.40;53.40
23291;DHT22;11814;44.686;10.842;2023-06-19T15:24:49;33.40;53.50
23291;DHT22;11814;44.686;10.842;2023-06-19T15:27:15;33.40;53.60